createdAt,value
2022-12-05T00:00:54.475Z,11.35
2022-12-05T00:05:47.497Z,11.30
2022-12-05T00:08:14.166Z,11.77
2022-12-05T00:10:40.716Z,11.73
2022-12-05T00:13:07.596Z,11.43
2022-12-05T00:15:39.161Z,11.75
2022-12-05T00:18:05.758Z,11.95
2022-12-05T00:20:32.315Z,11.32
2022-12-05T00:22:58.760Z,11.30
2022-12-05T00:25:25.196Z,11.75
2022-12-05T00:27:52.172Z,10.93
2022-12-05T00:30:18.515Z,11.52
2022-12-05T00:32:44.872Z,10.93
2022-12-05T00:35:11.223Z,11.30
2022-12-05T00:37:37.552Z,11.65
2022-12-05T00:40:04.684Z,12.20
2022-12-05T00:42:31.134Z,12.95
2022-12-05T00:44:57.461Z,13.13
2022-12-05T00:47:23.887Z,11.45
2022-12-05T00:49:50.346Z,11.73
2022-12-05T00:52:16.743Z,11.45
2022-12-05T00:54:43.614Z,12.40
2022-12-05T00:57:09.981Z,11.38
2022-12-05T00:59:36.307Z,10.48
2022-12-05T01:02:02.764Z,11.65
2022-12-05T01:04:29.119Z,11.93
2022-12-05T01:06:57.785Z,11.63
2022-12-05T01:09:25.086Z,11.55
2022-12-05T01:11:52.284Z,12.30
2022-12-05T01:14:21.546Z,11.43
2022-12-05T01:16:49.261Z,11.38
2022-12-05T01:19:20.020Z,11.88
2022-12-05T01:21:47.763Z,11.20
2022-12-05T01:24:15.139Z,12.00
2022-12-05T01:26:43.664Z,12.27
2022-12-05T01:29:12.496Z,12.63
2022-12-05T01:31:38.991Z,11.80
2022-12-05T01:34:08.465Z,11.43
2022-12-05T01:36:35.052Z,11.63
2022-12-05T01:39:01.900Z,11.88
2022-12-05T01:41:31.264Z,11.43
2022-12-05T01:44:08.329Z,11.45
2022-12-05T01:46:47.701Z,10.68
2022-12-05T01:49:30.510Z,10.15
2022-12-05T01:52:00.808Z,10.23
2022-12-05T01:54:27.782Z,9.50
2022-12-05T01:57:00.141Z,9.73
2022-12-05T01:59:30.498Z,10.10
2022-12-05T02:01:56.937Z,9.75
2022-12-05T02:04:23.290Z,10.13
2022-12-05T02:06:49.737Z,9.65
2022-12-05T02:09:16.083Z,9.90
2022-12-05T02:11:52.162Z,9.77
2022-12-05T02:14:31.048Z,9.70
2022-12-05T02:17:13.984Z,8.65
2022-12-05T02:19:56.403Z,8.50
2022-12-05T02:22:38.545Z,9.35
2022-12-05T02:25:26.740Z,8.35
2022-12-05T02:28:24.076Z,8.40
2022-12-05T02:31:01.831Z,8.80
2022-12-05T02:33:42.572Z,7.93
2022-12-05T02:36:17.949Z,7.00
2022-12-05T02:38:59.990Z,8.27
2022-12-05T02:41:40.229Z,7.10
2022-12-05T02:44:27.491Z,7.03
2022-12-05T02:46:54.260Z,6.53
2022-12-05T02:49:25.008Z,7.35
2022-12-05T02:51:58.118Z,6.72
2022-12-05T02:54:28.540Z,7.20
2022-12-05T02:56:57.330Z,6.85
2022-12-05T02:59:23.979Z,6.55
2022-12-05T03:01:50.897Z,6.90
2022-12-05T03:04:20.133Z,7.35
2022-12-05T03:06:55.520Z,6.60
2022-12-05T03:09:27.862Z,7.15
2022-12-05T03:12:01.862Z,6.10
2022-12-05T03:14:38.855Z,7.10
2022-12-05T03:17:09.479Z,5.88
2022-12-05T03:19:56.834Z,6.20
2022-12-05T03:22:37.767Z,5.57
2022-12-05T03:25:05.091Z,5.97
2022-12-05T03:27:51.791Z,5.97
2022-12-05T03:30:21.231Z,6.00
2022-12-05T03:33:05.221Z,5.55
2022-12-05T03:35:45.597Z,6.38
2022-12-05T03:38:26.962Z,5.72
2022-12-05T03:41:00.441Z,5.60
2022-12-05T03:43:34.871Z,6.05
2022-12-05T03:46:10.247Z,6.00
2022-12-05T03:48:46.677Z,5.60
2022-12-05T03:51:16.262Z,5.90
2022-12-05T03:53:52.259Z,5.85
2022-12-05T03:56:28.122Z,6.25
2022-12-05T03:59:02.552Z,5.32
2022-12-05T04:01:31.702Z,6.00
2022-12-05T04:04:04.238Z,5.50
2022-12-05T04:06:37.497Z,5.03
2022-12-05T04:09:23.354Z,5.00
2022-12-05T04:12:02.232Z,4.50
2022-12-05T04:14:35.233Z,4.57
2022-12-05T04:17:29.583Z,4.40
2022-12-05T04:20:57.722Z,4.25
2022-12-05T04:23:25.139Z,4.65
2022-12-05T04:26:03.135Z,3.65
2022-12-05T04:28:35.654Z,4.25
2022-12-05T04:31:07.823Z,3.72
2022-12-05T04:34:05.178Z,3.95
2022-12-05T04:36:33.803Z,3.75
2022-12-05T04:39:14.440Z,3.75
2022-12-05T04:41:55.040Z,3.28
2022-12-05T04:44:32.604Z,3.70
2022-12-05T04:47:02.243Z,3.72
2022-12-05T04:49:31.074Z,3.17
2022-12-05T04:52:02.403Z,3.28
2022-12-05T04:54:39.385Z,3.47
2022-12-05T04:57:21.818Z,3.53
2022-12-05T04:59:49.004Z,3.47
2022-12-05T05:02:20.884Z,3.45
2022-12-05T05:04:51.146Z,3.70
2022-12-05T05:07:18.337Z,3.38
2022-12-05T05:09:44.920Z,3.38
2022-12-05T05:12:17.215Z,3.13
2022-12-05T05:14:45.249Z,3.55
2022-12-05T05:17:11.576Z,3.63
2022-12-05T05:19:37.905Z,3.88
2022-12-05T05:22:04.350Z,3.63
2022-12-05T05:24:30.654Z,4.00
2022-12-05T05:26:57.587Z,3.40
2022-12-05T05:29:24.274Z,3.63
2022-12-05T05:31:50.641Z,3.85
2022-12-05T05:34:17.036Z,3.72
2022-12-05T05:36:43.936Z,3.75
2022-12-05T05:39:15.153Z,3.72
2022-12-05T05:41:42.982Z,4.00
2022-12-05T05:44:09.983Z,3.92
2022-12-05T05:46:36.989Z,4.00
2022-12-05T05:49:04.324Z,4.70
2022-12-05T05:51:30.993Z,4.40
2022-12-05T05:53:58.340Z,3.75
2022-12-05T05:56:25.239Z,4.43
2022-12-05T05:59:00.232Z,4.70
2022-12-05T06:01:26.960Z,4.93
2022-12-05T06:03:53.617Z,4.20
2022-12-05T06:06:21.223Z,5.13
2022-12-05T06:08:48.180Z,6.05
2022-12-05T06:11:25.223Z,4.97
2022-12-05T06:13:53.398Z,5.03
2022-12-05T06:16:21.134Z,5.13
2022-12-05T06:18:49.157Z,5.00
2022-12-05T06:21:16.530Z,5.72
2022-12-05T06:23:43.249Z,4.53
2022-12-05T06:26:15.843Z,4.97
2022-12-05T06:28:42.593Z,4.88
2022-12-05T06:31:11.537Z,5.45
2022-12-05T06:33:38.314Z,4.95
2022-12-05T06:36:11.836Z,5.35
2022-12-05T06:38:42.293Z,5.18
2022-12-05T06:41:11.488Z,5.10
2022-12-05T06:43:37.853Z,5.18
2022-12-05T06:46:07.047Z,5.32
2022-12-05T06:48:33.877Z,5.15
2022-12-05T06:51:00.417Z,4.65
2022-12-05T06:53:27.149Z,5.88
2022-12-05T06:56:00.730Z,5.20
2022-12-05T06:58:27.951Z,4.65
2022-12-05T07:01:13.143Z,4.65
2022-12-05T07:03:40.343Z,5.15
2022-12-05T07:06:07.929Z,5.78
2022-12-05T07:08:34.898Z,5.47
2022-12-05T07:11:02.076Z,5.95
2022-12-05T07:13:28.607Z,5.05
2022-12-05T07:15:55.126Z,4.90
2022-12-05T07:18:21.498Z,4.95
2022-12-05T07:21:15.279Z,5.82
2022-12-05T07:23:44.144Z,5.68
2022-12-05T07:26:17.464Z,5.93
2022-12-05T07:28:43.871Z,5.10
2022-12-05T07:31:12.749Z,5.32
2022-12-05T07:33:39.153Z,6.15
2022-12-05T07:36:08.950Z,6.80
2022-12-05T07:38:35.821Z,6.43
2022-12-05T07:41:13.572Z,8.85
2022-12-05T07:43:41.586Z,8.45
2022-12-05T07:48:35.378Z,5.30
2022-12-05T07:51:03.565Z,8.07
2022-12-05T07:53:30.907Z,12.65
2022-12-05T07:56:02.090Z,9.55
2022-12-05T07:58:29.491Z,6.47
2022-12-05T08:00:56.395Z,11.13
2022-12-05T08:03:22.810Z,12.75
2022-12-05T08:05:49.248Z,10.93
2022-12-05T08:08:15.640Z,13.35
2022-12-05T08:10:42.038Z,16.50
2022-12-05T08:13:08.446Z,8.73
2022-12-05T08:15:36.637Z,12.02
2022-12-05T08:18:03.529Z,7.75
2022-12-05T08:20:30.478Z,7.13
2022-12-05T08:22:56.928Z,6.13
2022-12-05T08:25:23.343Z,5.70
2022-12-05T08:27:49.691Z,5.60
2022-12-05T08:30:16.210Z,6.40
2022-12-05T08:32:42.699Z,6.20
2022-12-05T08:35:10.841Z,6.15
2022-12-05T08:37:37.243Z,6.32
2022-12-05T08:40:04.896Z,5.50
2022-12-05T08:42:31.552Z,6.57
2022-12-05T08:44:58.160Z,6.60
2022-12-05T08:47:24.742Z,6.20
2022-12-05T08:49:51.115Z,6.35
2022-12-05T08:52:17.688Z,6.20
2022-12-05T08:54:44.027Z,6.20
2022-12-05T08:57:10.635Z,5.80
2022-12-05T08:59:37.047Z,5.85
2022-12-05T09:02:03.916Z,5.85
2022-12-05T09:04:30.403Z,5.80
2022-12-05T09:06:56.731Z,5.75
2022-12-05T09:09:23.142Z,6.47
2022-12-05T09:11:50.869Z,6.20
2022-12-05T09:14:17.976Z,6.43
2022-12-05T09:16:46.227Z,7.03
2022-12-05T09:19:18.225Z,6.95
2022-12-05T09:21:44.913Z,6.78
2022-12-05T09:24:13.076Z,6.38
2022-12-05T09:26:40.362Z,6.50
2022-12-05T09:29:09.993Z,6.25
2022-12-05T09:31:42.925Z,6.93
2022-12-05T09:34:09.730Z,6.78
2022-12-05T09:36:36.187Z,6.55
2022-12-05T09:39:05.599Z,6.00
2022-12-05T09:41:59.560Z,6.63
2022-12-05T09:44:42.742Z,6.78
2022-12-05T09:47:48.056Z,5.72
2022-12-05T09:50:19.516Z,6.40
2022-12-05T09:52:54.588Z,6.13
2022-12-05T09:55:21.673Z,7.45
2022-12-05T09:57:53.930Z,7.20
2022-12-05T10:00:20.508Z,6.80
2022-12-05T10:03:08.035Z,7.45
2022-12-05T10:05:47.384Z,6.82
2022-12-05T10:08:26.333Z,7.00
2022-12-05T10:11:18.564Z,5.85
2022-12-05T10:13:57.153Z,5.80
2022-12-05T10:16:31.739Z,5.95
2022-12-05T10:19:05.549Z,6.78
2022-12-05T10:21:47.797Z,5.90
2022-12-05T10:24:40.810Z,6.53
2022-12-05T10:27:11.738Z,7.93
2022-12-05T10:29:47.964Z,8.35
2022-12-05T10:32:19.688Z,7.15
2022-12-05T10:34:46.629Z,7.78
2022-12-05T10:37:21.069Z,12.13
2022-12-05T10:39:49.001Z,9.35
2022-12-05T10:42:19.771Z,8.75
2022-12-05T10:44:46.203Z,5.63
2022-12-05T10:47:12.785Z,8.98
2022-12-05T10:49:39.914Z,8.00
2022-12-05T10:52:06.785Z,7.35
2022-12-05T10:54:41.721Z,9.48
2022-12-05T10:57:22.542Z,9.57
2022-12-05T10:59:49.166Z,9.98
2022-12-05T11:02:31.779Z,7.35
2022-12-05T11:04:59.377Z,7.30
2022-12-05T11:07:29.256Z,7.75
2022-12-05T11:09:56.267Z,6.95
2022-12-05T11:12:35.691Z,6.88
2022-12-05T11:15:15.503Z,6.55
2022-12-05T11:20:20.324Z,6.20
2022-12-05T11:22:49.573Z,5.40
2022-12-05T11:25:35.653Z,6.13
2022-12-05T11:28:17.450Z,5.25
2022-12-05T11:31:12.961Z,5.22
2022-12-05T11:33:39.867Z,6.15
2022-12-05T11:36:19.641Z,6.05
2022-12-05T11:38:46.805Z,7.70
2022-12-05T11:41:46.004Z,7.57
2022-12-05T11:44:26.908Z,5.75
2022-12-05T11:47:11.967Z,6.20
2022-12-05T11:50:11.509Z,6.03
2022-12-05T11:53:00.610Z,5.70
2022-12-05T11:55:37.762Z,5.72
2022-12-05T11:58:30.978Z,6.20
2022-12-05T12:01:03.397Z,6.32
2022-12-05T12:03:54.167Z,5.80
2022-12-05T12:06:29.104Z,5.70
2022-12-05T12:09:17.374Z,5.18
2022-12-05T12:12:05.597Z,4.95
2022-12-05T12:14:49.141Z,4.95
2022-12-05T12:17:46.239Z,6.03
2022-12-05T12:20:34.915Z,5.35
2022-12-05T12:23:28.287Z,5.70
2022-12-05T12:26:20.335Z,6.80
2022-12-05T12:29:03.127Z,8.07
2022-12-05T12:31:40.606Z,8.60
2022-12-05T12:34:32.180Z,7.68
2022-12-05T12:37:21.770Z,7.07
2022-12-05T12:39:56.750Z,6.82
2022-12-05T12:42:23.015Z,7.43
2022-12-05T12:45:03.585Z,7.72
2022-12-05T12:48:02.070Z,6.15
2022-12-05T12:50:36.483Z,6.63
2022-12-05T12:53:25.936Z,7.22
2022-12-05T12:56:11.032Z,6.78
2022-12-05T12:58:51.610Z,7.43
2022-12-05T13:01:43.004Z,5.78
2022-12-05T13:04:15.451Z,6.07
2022-12-05T13:06:48.141Z,6.38
2022-12-05T13:09:24.320Z,6.45
2022-12-05T13:11:53.161Z,5.82
2022-12-05T13:14:25.135Z,6.97
2022-12-05T13:16:54.753Z,6.47
2022-12-05T13:19:23.834Z,6.78
2022-12-05T13:21:50.429Z,7.15
2022-12-05T13:24:23.519Z,6.40
2022-12-05T13:26:50.362Z,7.32
2022-12-05T13:29:26.923Z,8.25
2022-12-05T13:31:53.435Z,8.68
2022-12-05T13:34:29.371Z,7.82
2022-12-05T13:37:16.886Z,10.20
2022-12-05T13:40:10.846Z,10.10
2022-12-05T13:42:37.818Z,5.63
2022-12-05T13:45:04.687Z,5.30
2022-12-05T13:47:46.296Z,5.50
2022-12-05T13:50:27.581Z,4.78
2022-12-05T13:52:58.165Z,5.63
2022-12-05T13:55:35.999Z,4.90
2022-12-05T13:58:24.006Z,5.55
2022-12-05T14:00:52.067Z,5.85
2022-12-05T14:03:21.518Z,5.45
2022-12-05T14:05:50.541Z,5.75
2022-12-05T14:08:31.952Z,5.40
2022-12-05T14:10:58.195Z,7.20
2022-12-05T14:13:25.272Z,6.45
2022-12-05T14:15:54.549Z,8.73
2022-12-05T14:18:46.664Z,6.15
2022-12-05T14:21:38.598Z,6.78
2022-12-05T14:24:34.181Z,7.18
2022-12-05T14:27:15.532Z,6.22
2022-12-05T14:29:54.115Z,6.03
2022-12-05T14:32:34.833Z,6.00
2022-12-05T14:35:01.272Z,7.32
2022-12-05T14:37:33.363Z,8.15
2022-12-05T14:40:02.138Z,7.75
2022-12-05T14:42:43.262Z,8.40
2022-12-05T14:45:36.544Z,8.85
2022-12-05T14:48:15.028Z,7.78
2022-12-05T14:50:45.488Z,7.07
2022-12-05T14:53:20.203Z,6.22
2022-12-05T14:55:51.031Z,5.78
2022-12-05T14:58:30.955Z,8.20
2022-12-05T15:01:01.234Z,8.80
2022-12-05T15:03:35.459Z,8.55
2022-12-05T15:06:05.394Z,6.78
2022-12-05T15:08:38.422Z,6.80
2022-12-05T15:11:04.905Z,6.80
2022-12-05T15:13:32.864Z,8.65
2022-12-05T15:16:17.756Z,9.38
2022-12-05T15:18:49.111Z,8.07
2022-12-05T15:21:36.383Z,8.70
2022-12-05T15:24:05.682Z,8.80
2022-12-05T15:26:47.895Z,5.82
2022-12-05T15:29:19.240Z,6.47
2022-12-05T15:31:57.019Z,6.55
2022-12-05T15:34:36.741Z,6.05
2022-12-05T15:37:22.180Z,6.38
2022-12-05T15:39:55.885Z,7.57
2022-12-05T15:42:30.937Z,8.27
2022-12-05T15:45:11.925Z,7.80
2022-12-05T15:47:39.026Z,7.65
2022-12-05T15:50:06.555Z,7.15
2022-12-05T15:52:53.884Z,7.75
2022-12-05T15:55:28.115Z,6.40
2022-12-05T15:58:16.666Z,6.72
2022-12-05T16:00:49.306Z,5.55
2022-12-05T16:03:22.564Z,6.80
2022-12-05T16:05:55.167Z,6.28
2022-12-05T16:08:24.418Z,6.32
2022-12-05T16:10:51.639Z,6.18
2022-12-05T16:13:26.061Z,7.45
2022-12-05T16:15:54.673Z,6.55
2022-12-05T16:18:27.593Z,6.57
2022-12-05T16:20:54.622Z,8.10
2022-12-05T16:23:30.126Z,6.95
2022-12-05T16:26:15.256Z,7.07
2022-12-05T16:28:41.867Z,8.10
2022-12-05T16:31:17.146Z,8.50
2022-12-05T16:33:44.162Z,8.57
2022-12-05T16:36:12.599Z,6.85
2022-12-05T16:38:44.928Z,6.13
2022-12-05T16:41:14.370Z,6.32
2022-12-05T16:43:44.045Z,5.57
2022-12-05T16:46:13.382Z,5.32
2022-12-05T16:48:41.658Z,6.07
2022-12-05T16:51:13.958Z,4.72
2022-12-05T16:53:43.116Z,4.55
2022-12-05T16:56:16.617Z,4.57
2022-12-05T16:58:43.065Z,4.32
2022-12-05T17:01:18.231Z,4.63
2022-12-05T17:03:45.252Z,4.30
2022-12-05T17:06:12.172Z,4.65
2022-12-05T17:08:38.598Z,4.20
2022-12-05T17:11:07.805Z,4.85
2022-12-05T17:13:34.220Z,4.53
2022-12-05T17:16:00.707Z,4.80
2022-12-05T17:18:31.494Z,4.68
2022-12-05T17:21:01.359Z,4.65
2022-12-05T17:23:27.721Z,5.18
2022-12-05T17:25:58.523Z,4.82
2022-12-05T17:28:25.461Z,4.90
2022-12-05T17:30:51.970Z,4.78
2022-12-05T17:33:19.551Z,4.97
2022-12-05T17:35:46.132Z,5.40
2022-12-05T17:38:12.680Z,4.35
2022-12-05T17:40:40.051Z,5.20
2022-12-05T17:43:06.753Z,5.38
2022-12-05T17:45:33.515Z,5.30
2022-12-05T17:48:00.074Z,5.97
2022-12-05T17:50:26.973Z,4.95
2022-12-05T17:52:56.556Z,5.88
2022-12-05T17:55:26.307Z,7.05
2022-12-05T17:57:54.169Z,6.00
2022-12-05T18:00:22.664Z,6.05
2022-12-05T18:02:50.391Z,6.65
2022-12-05T18:07:44.805Z,5.90
2022-12-05T18:10:15.008Z,6.38
2022-12-05T18:12:41.463Z,5.97
2022-12-05T18:15:08.701Z,5.78
2022-12-05T18:17:35.775Z,7.78
2022-12-05T18:20:02.259Z,7.00
2022-12-05T18:22:28.737Z,7.32
2022-12-05T18:24:55.358Z,6.28
2022-12-05T18:27:22.344Z,6.68
2022-12-05T18:29:49.779Z,6.00
2022-12-05T18:32:17.034Z,7.07
2022-12-05T18:34:43.390Z,7.40
2022-12-05T18:37:10.778Z,8.98
2022-12-05T18:39:40.201Z,8.52
2022-12-05T18:42:11.707Z,8.73
2022-12-05T18:44:41.428Z,8.32
2022-12-05T18:47:08.058Z,8.65
2022-12-05T18:49:34.453Z,8.80
2022-12-05T18:52:00.906Z,8.90
2022-12-05T18:54:27.230Z,9.90
2022-12-05T18:56:53.700Z,11.25
2022-12-05T18:59:21.199Z,13.70
2022-12-05T19:01:48.530Z,13.00
2022-12-05T19:04:17.496Z,9.43
2022-12-05T19:06:52.823Z,10.30
2022-12-05T19:09:21.777Z,9.05
2022-12-05T19:11:51.280Z,11.32
2022-12-05T19:14:19.353Z,12.07
2022-12-05T19:16:47.976Z,10.02
2022-12-05T19:19:15.367Z,11.82
2022-12-05T19:21:42.317Z,10.85
2022-12-05T19:24:10.763Z,9.73
2022-12-05T19:26:37.288Z,10.20
2022-12-05T19:29:03.785Z,10.50
2022-12-05T19:31:31.599Z,9.52
2022-12-05T19:34:02.433Z,8.77
2022-12-05T19:36:31.770Z,8.48
2022-12-05T19:38:59.488Z,9.27
2022-12-05T19:43:54.789Z,8.32
2022-12-05T19:46:29.556Z,9.00
2022-12-05T19:49:02.473Z,8.23
2022-12-05T19:51:30.103Z,8.90
2022-12-05T19:54:00.819Z,11.40
2022-12-05T19:56:29.235Z,12.75
2022-12-05T19:58:57.764Z,11.68
2022-12-05T20:01:36.197Z,11.65
2022-12-05T20:04:06.538Z,16.10
2022-12-05T20:06:43.802Z,15.10
2022-12-05T20:09:11.558Z,10.18
2022-12-05T20:14:10.694Z,8.75
2022-12-05T20:16:37.206Z,9.30
2022-12-05T20:19:04.647Z,8.23
2022-12-05T20:21:32.982Z,9.38
2022-12-05T20:24:00.956Z,9.13
2022-12-05T20:26:30.379Z,8.32
2022-12-05T20:28:58.617Z,9.48
2022-12-05T20:31:28.898Z,7.65
2022-12-05T20:33:55.619Z,7.50
2022-12-05T20:36:25.154Z,7.50
2022-12-05T20:38:56.175Z,7.25
2022-12-05T20:41:22.623Z,10.10
2022-12-05T20:43:54.735Z,9.60
2022-12-05T20:46:22.204Z,10.23
2022-12-05T20:48:49.849Z,20.42
2022-12-05T20:51:22.233Z,18.17
2022-12-05T20:53:48.988Z,21.00
2022-12-05T20:56:21.246Z,13.18
2022-12-05T20:58:50.574Z,11.85
2022-12-05T21:01:18.778Z,9.75
2022-12-05T21:03:47.889Z,8.43
2022-12-05T21:06:17.365Z,8.98
2022-12-05T21:08:43.907Z,9.77
2022-12-05T21:11:11.934Z,8.82
2022-12-05T21:13:38.681Z,8.32
2022-12-05T21:16:07.628Z,7.82
2022-12-05T21:18:34.266Z,8.02
2022-12-05T21:21:06.138Z,9.65
2022-12-05T21:23:33.363Z,11.82
2022-12-05T21:26:06.176Z,10.95
2022-12-05T21:28:33.595Z,11.98
2022-12-05T21:31:14.633Z,9.27
2022-12-05T21:33:43.253Z,10.77
2022-12-05T21:36:09.658Z,9.63
2022-12-05T21:38:36.017Z,9.57
2022-12-05T21:41:04.055Z,11.05
2022-12-05T21:43:30.776Z,12.40
2022-12-05T21:45:57.497Z,12.40
2022-12-05T21:48:24.798Z,12.65
2022-12-05T21:50:51.375Z,11.88
2022-12-05T21:53:18.484Z,12.52
2022-12-05T21:55:45.201Z,13.20
2022-12-05T21:58:11.748Z,12.35
2022-12-05T22:00:38.542Z,11.38
2022-12-05T22:03:06.051Z,10.70
2022-12-05T22:05:33.357Z,9.95
2022-12-05T22:08:04.798Z,9.93
2022-12-05T22:10:34.292Z,8.60
2022-12-05T22:13:00.623Z,9.13
2022-12-05T22:15:26.968Z,8.68
2022-12-05T22:17:53.385Z,9.60
2022-12-05T22:20:19.791Z,9.88
2022-12-05T22:22:46.169Z,9.75
2022-12-05T22:25:12.645Z,9.75
2022-12-05T22:27:38.988Z,8.52
2022-12-05T22:30:06.152Z,9.48
2022-12-05T22:32:32.537Z,8.80
2022-12-05T22:35:03.533Z,9.23
2022-12-05T22:37:30.475Z,9.02
2022-12-05T22:39:57.208Z,11.00
2022-12-05T22:42:26.528Z,10.38
2022-12-05T22:44:52.910Z,9.40
2022-12-05T22:47:19.250Z,9.75
2022-12-05T22:49:45.591Z,9.60
2022-12-05T22:52:11.915Z,9.93
2022-12-05T22:54:38.263Z,9.75
2022-12-05T22:57:04.623Z,8.57
2022-12-05T22:59:30.964Z,9.68
2022-12-05T23:01:57.465Z,9.13
2022-12-05T23:04:24.042Z,8.25
2022-12-05T23:06:50.474Z,7.78
2022-12-05T23:09:16.931Z,7.93
2022-12-05T23:11:43.409Z,7.35
2022-12-05T23:14:09.775Z,7.00
2022-12-05T23:16:36.554Z,7.03
2022-12-05T23:19:05.456Z,7.45
2022-12-05T23:21:33.446Z,8.18
2022-12-05T23:24:01.751Z,7.88
2022-12-05T23:26:33.999Z,8.77
2022-12-05T23:29:00.455Z,8.85
2022-12-05T23:31:26.929Z,9.65
2022-12-05T23:33:56.122Z,9.55
2022-12-05T23:36:24.789Z,9.35
2022-12-05T23:38:51.130Z,9.70
2022-12-05T23:41:19.844Z,9.68
2022-12-05T23:43:47.870Z,9.45
2022-12-05T23:46:15.912Z,8.75
2022-12-05T23:48:42.997Z,8.30
2022-12-05T23:51:17.525Z,8.80
2022-12-05T23:53:45.883Z,9.48
2022-12-05T23:56:15.080Z,9.55
2022-12-05T23:58:42.254Z,9.52
